sensor_id;sensor_type;location;lat;lon;timestamp;pressure;altitude;pressure_sealevel;temperature;humidity
26443;BME280;5563;52.296;6.806;2023-04-02T00:06:00;101117.97;;;4.82;87.11
26443;BME280;5563;52.296;6.806;2023-04-02T00:08:51;101095.88;;;4.68;87.52
26443;BME280;5563;52.296;6.806;2023-04-02T00:11:51;101107.22;;;4.70;86.84
26443;BME280;5563;52.296;6.806;2023-04-02T00:18:12;101115.81;;;4.56;86.86
26443;BME280;5563;52.296;6.806;2023-04-02T00:24:53;101148.69;;;4.68;86.58
26443;BME280;5563;52.296;6.806;2023-04-02T00:31:12;101143.47;;;4.49;86.30
26443;BME280;5563;52.296;6.806;2023-04-02T00:38:16;101177.41;;;4.57;86.33
26443;BME280;5563;52.296;6.806;2023-04-02T00:41:18;101169.19;;;4.46;86.16
26443;BME280;5563;52.296;6.806;2023-04-02T00:43:57;101157.38;;;4.35;85.88
26443;BME280;5563;52.296;6.806;2023-04-02T00:46:53;101185.72;;;4.49;86.40
26443;BME280;5563;52.296;6.806;2023-04-02T00:49:39;101169.88;;;4.32;86.12
26443;BME280;5563;52.296;6.806;2023-04-02T00:55:59;101186.50;;;4.34;85.74
26443;BME280;5563;52.296;6.806;2023-04-02T01:10:03;101217.91;;;4.21;85.43
26443;BME280;5563;52.296;6.806;2023-04-02T01:47:38;101299.09;;;3.79;85.35
26443;BME280;5563;52.296;6.806;2023-04-02T01:53:50;101295.94;;;3.71;85.09
26443;BME280;5563;52.296;6.806;2023-04-02T02:07:23;101313.75;;;3.66;84.92
26443;BME280;5563;52.296;6.806;2023-04-02T02:10:14;101312.97;;;3.64;84.80
26443;BME280;5563;52.296;6.806;2023-04-02T02:16:31;101326.06;;;3.66;84.87
26443;BME280;5563;52.296;6.806;2023-04-02T02:27:00;101345.38;;;3.66;84.15
26443;BME280;5563;52.296;6.806;2023-04-02T02:37:36;101352.97;;;3.54;83.12
26443;BME280;5563;52.296;6.806;2023-04-02T02:46:54;101395.38;;;3.49;81.99
26443;BME280;5563;52.296;6.806;2023-04-02T02:49:33;101375.84;;;3.33;82.04
26443;BME280;5563;52.296;6.806;2023-04-02T02:55:21;101391.06;;;3.26;81.32
26443;BME280;5563;52.296;6.806;2023-04-02T02:58:04;101391.47;;;3.17;81.33
26443;BME280;5563;52.296;6.806;2023-04-02T03:04:35;101419.88;;;3.09;81.04
26443;BME280;5563;52.296;6.806;2023-04-02T03:28:26;101457.75;;;2.85;80.47
26443;BME280;5563;52.296;6.806;2023-04-02T03:31:16;101463.31;;;2.78;79.92
26443;BME280;5563;52.296;6.806;2023-04-02T03:48:35;101529.69;;;2.64;78.70
26443;BME280;5563;52.296;6.806;2023-04-02T03:54:47;101515.56;;;2.42;78.90
26443;BME280;5563;52.296;6.806;2023-04-02T04:08:30;101531.81;;;2.30;79.47
26443;BME280;5563;52.296;6.806;2023-04-02T04:21:32;101577.88;;;2.17;78.42
26443;BME280;5563;52.296;6.806;2023-04-02T04:24:19;101580.72;;;2.11;78.52
26443;BME280;5563;52.296;6.806;2023-04-02T04:27:05;101580.75;;;2.09;79.19
26443;BME280;5563;52.296;6.806;2023-04-02T04:33:27;101604.78;;;2.00;78.21
26443;BME280;5563;52.296;6.806;2023-04-02T04:36:44;101606.66;;;1.95;78.76
26443;BME280;5563;52.296;6.806;2023-04-02T04:39:48;101634.28;;;2.08;78.63
26443;BME280;5563;52.296;6.806;2023-04-02T04:46:05;101625.41;;;1.85;79.05
26443;BME280;5563;52.296;6.806;2023-04-02T04:49:07;101643.00;;;1.83;78.83
26443;BME280;5563;52.296;6.806;2023-04-02T04:55:42;101653.63;;;1.80;79.18
26443;BME280;5563;52.296;6.806;2023-04-02T05:01:58;101656.56;;;1.71;79.21
26443;BME280;5563;52.296;6.806;2023-04-02T05:04:37;101672.16;;;1.77;79.03
26443;BME280;5563;52.296;6.806;2023-04-02T05:07:12;101674.28;;;1.64;78.53
26443;BME280;5563;52.296;6.806;2023-04-02T05:21:05;101720.34;;;1.77;79.55
26443;BME280;5563;52.296;6.806;2023-04-02T05:23:57;101740.50;;;1.77;79.52
26443;BME280;5563;52.296;6.806;2023-04-02T05:26:37;101706.94;;;1.57;79.22
26443;BME280;5563;52.296;6.806;2023-04-02T05:29:23;101712.91;;;1.62;79.07
26443;BME280;5563;52.296;6.806;2023-04-02T05:32:25;101726.81;;;1.66;78.80
26443;BME280;5563;52.296;6.806;2023-04-02T05:35:02;101732.94;;;1.66;79.05
26443;BME280;5563;52.296;6.806;2023-04-02T05:37:47;101741.63;;;1.68;79.25
26443;BME280;5563;52.296;6.806;2023-04-02T05:40:37;101746.97;;;1.65;79.65
26443;BME280;5563;52.296;6.806;2023-04-02T05:43:45;101764.94;;;1.80;79.43
26443;BME280;5563;52.296;6.806;2023-04-02T05:46:30;101758.31;;;1.67;78.85
26443;BME280;5563;52.296;6.806;2023-04-02T05:52:47;101786.00;;;1.79;79.67
26443;BME280;5563;52.296;6.806;2023-04-02T05:59:33;101795.00;;;1.70;78.55
26443;BME280;5563;52.296;6.806;2023-04-02T06:05:11;101802.09;;;1.68;79.24
26443;BME280;5563;52.296;6.806;2023-04-02T06:11:35;101822.47;;;1.60;78.38
26443;BME280;5563;52.296;6.806;2023-04-02T06:14:38;101841.59;;;1.65;78.96
26443;BME280;5563;52.296;6.806;2023-04-02T06:17:26;101845.19;;;1.63;79.10
26443;BME280;5563;52.296;6.806;2023-04-02T06:23:49;101862.72;;;1.62;78.79
26443;BME280;5563;52.296;6.806;2023-04-02T06:26:41;101867.88;;;1.65;79.06
26443;BME280;5563;52.296;6.806;2023-04-02T06:33:13;101908.34;;;1.90;79.57
26443;BME280;5563;52.296;6.806;2023-04-02T06:39:28;101881.69;;;1.73;78.51
26443;BME280;5563;52.296;6.806;2023-04-02T06:45:39;101895.81;;;1.69;78.84
26443;BME280;5563;52.296;6.806;2023-04-02T06:48:31;101936.28;;;1.94;78.83
26443;BME280;5563;52.296;6.806;2023-04-02T06:51:13;101909.72;;;1.73;77.79
26443;BME280;5563;52.296;6.806;2023-04-02T06:53:56;101955.53;;;1.96;77.89
26443;BME280;5563;52.296;6.806;2023-04-02T06:56:46;101949.34;;;1.97;77.86
26443;BME280;5563;52.296;6.806;2023-04-02T06:59:15;101925.88;;;1.91;78.05
26443;BME280;5563;52.296;6.806;2023-04-02T07:02:15;101920.56;;;1.93;77.56
26443;BME280;5563;52.296;6.806;2023-04-02T07:04:51;101929.91;;;2.03;76.78
26443;BME280;5563;52.296;6.806;2023-04-02T07:07:26;101949.56;;;2.20;76.70
26443;BME280;5563;52.296;6.806;2023-04-02T07:13:32;101933.88;;;2.17;75.96
26443;BME280;5563;52.296;6.806;2023-04-02T07:16:18;101939.81;;;2.24;76.23
26443;BME280;5563;52.296;6.806;2023-04-02T07:22:19;101989.72;;;2.56;76.06
26443;BME280;5563;52.296;6.806;2023-04-02T07:28:29;102003.72;;;2.58;73.59
26443;BME280;5563;52.296;6.806;2023-04-02T07:34:56;101993.41;;;2.51;75.25
26443;BME280;5563;52.296;6.806;2023-04-02T07:37:58;101985.56;;;2.49;75.54
26443;BME280;5563;52.296;6.806;2023-04-02T07:40:33;101989.78;;;2.55;73.93
26443;BME280;5563;52.296;6.806;2023-04-02T07:43:06;101999.25;;;2.60;74.18
26443;BME280;5563;52.296;6.806;2023-04-02T07:45:41;102005.63;;;2.53;74.09
26443;BME280;5563;52.296;6.806;2023-04-02T07:48:11;102012.59;;;2.54;73.96
26443;BME280;5563;52.296;6.806;2023-04-02T07:51:01;102012.78;;;2.48;73.63
26443;BME280;5563;52.296;6.806;2023-04-02T07:53:40;102003.22;;;2.46;74.15
26443;BME280;5563;52.296;6.806;2023-04-02T07:56:14;102030.72;;;2.65;74.04
26443;BME280;5563;52.296;6.806;2023-04-02T07:58:42;102046.13;;;2.77;73.98
26443;BME280;5563;52.296;6.806;2023-04-02T08:01:29;102027.41;;;2.58;74.07
26443;BME280;5563;52.296;6.806;2023-04-02T08:04:04;102054.91;;;2.77;73.74
26443;BME280;5563;52.296;6.806;2023-04-02T08:06:43;102078.34;;;2.86;74.04
26443;BME280;5563;52.296;6.806;2023-04-02T08:09:15;102040.31;;;2.67;73.74
26443;BME280;5563;52.296;6.806;2023-04-02T08:12:01;102050.88;;;2.66;73.14
26443;BME280;5563;52.296;6.806;2023-04-02T08:14:33;102093.41;;;2.81;72.68
26443;BME280;5563;52.296;6.806;2023-04-02T08:17:08;102084.84;;;2.75;72.39
26443;BME280;5563;52.296;6.806;2023-04-02T08:19:41;102102.25;;;2.79;73.39
26443;BME280;5563;52.296;6.806;2023-04-02T08:22:20;102103.09;;;2.81;72.80
26443;BME280;5563;52.296;6.806;2023-04-02T08:24:47;102110.13;;;2.80;72.82
26443;BME280;5563;52.296;6.806;2023-04-02T08:27:22;102115.22;;;2.86;72.47
26443;BME280;5563;52.296;6.806;2023-04-02T08:29:55;102114.91;;;2.97;71.22
26443;BME280;5563;52.296;6.806;2023-04-02T08:32:22;102116.72;;;2.95;71.15
26443;BME280;5563;52.296;6.806;2023-04-02T08:34:49;102132.47;;;2.98;70.32
26443;BME280;5563;52.296;6.806;2023-04-02T08:37:23;102123.47;;;3.05;71.81
26443;BME280;5563;52.296;6.806;2023-04-02T08:39:57;102125.78;;;3.14;69.90
26443;BME280;5563;52.296;6.806;2023-04-02T08:42:35;102120.53;;;3.14;71.10
26443;BME280;5563;52.296;6.806;2023-04-02T08:45:41;102143.75;;;3.30;70.53
26443;BME280;5563;52.296;6.806;2023-04-02T08:48:13;102140.56;;;3.19;68.42
26443;BME280;5563;52.296;6.806;2023-04-02T08:50:48;102140.94;;;3.07;68.82
26443;BME280;5563;52.296;6.806;2023-04-02T08:53:26;102149.88;;;3.02;68.97
26443;BME280;5563;52.296;6.806;2023-04-02T08:56:54;102153.63;;;2.93;69.29
26443;BME280;5563;52.296;6.806;2023-04-02T08:59:28;102162.84;;;3.09;69.19
26443;BME280;5563;52.296;6.806;2023-04-02T09:04:45;102160.56;;;3.26;67.85
26443;BME280;5563;52.296;6.806;2023-04-02T09:07:15;102157.66;;;3.36;69.95
26443;BME280;5563;52.296;6.806;2023-04-02T09:09:49;102179.44;;;3.70;70.40
26443;BME280;5563;52.296;6.806;2023-04-02T09:12:30;102181.50;;;3.88;67.31
26443;BME280;5563;52.296;6.806;2023-04-02T09:15:16;102182.22;;;3.93;66.56
26443;BME280;5563;52.296;6.806;2023-04-02T09:17:59;102198.75;;;3.98;67.14
26443;BME280;5563;52.296;6.806;2023-04-02T09:20:37;102195.72;;;4.10;66.55
26443;BME280;5563;52.296;6.806;2023-04-02T09:23:19;102187.34;;;4.23;66.17
26443;BME280;5563;52.296;6.806;2023-04-02T09:25:54;102201.66;;;4.43;65.22
26443;BME280;5563;52.296;6.806;2023-04-02T09:28:30;102196.94;;;4.77;64.11
26443;BME280;5563;52.296;6.806;2023-04-02T09:31:18;102209.53;;;5.18;63.69
26443;BME280;5563;52.296;6.806;2023-04-02T09:33:53;102213.47;;;5.53;62.23
26443;BME280;5563;52.296;6.806;2023-04-02T09:36:35;102217.44;;;5.64;62.00
26443;BME280;5563;52.296;6.806;2023-04-02T09:39:18;102222.91;;;5.83;62.74
26443;BME280;5563;52.296;6.806;2023-04-02T09:41:46;102214.56;;;6.15;61.10
26443;BME280;5563;52.296;6.806;2023-04-02T09:44:31;102234.66;;;6.40;60.29
26443;BME280;5563;52.296;6.806;2023-04-02T09:46:59;102230.72;;;6.50;60.04
26443;BME280;5563;52.296;6.806;2023-04-02T09:49:37;102233.91;;;6.79;59.24
26443;BME280;5563;52.296;6.806;2023-04-02T09:52:19;102205.94;;;6.92;57.61
26443;BME280;5563;52.296;6.806;2023-04-02T09:55:16;102235.47;;;7.23;58.11
26443;BME280;5563;52.296;6.806;2023-04-02T09:57:50;102236.59;;;7.17;58.58
26443;BME280;5563;52.296;6.806;2023-04-02T10:00:39;102246.16;;;7.21;58.09
26443;BME280;5563;52.296;6.806;2023-04-02T10:03:24;102240.13;;;6.98;56.50
26443;BME280;5563;52.296;6.806;2023-04-02T10:06:08;102253.84;;;7.07;58.08
26443;BME280;5563;52.296;6.806;2023-04-02T10:08:43;102248.41;;;7.30;57.31
26443;BME280;5563;52.296;6.806;2023-04-02T10:11:22;102252.00;;;7.48;55.42
26443;BME280;5563;52.296;6.806;2023-04-02T10:14:24;102257.72;;;7.39;56.64
26443;BME280;5563;52.296;6.806;2023-04-02T10:17:15;102264.66;;;7.41;57.34
26443;BME280;5563;52.296;6.806;2023-04-02T10:19:54;102256.38;;;7.49;58.20
26443;BME280;5563;52.296;6.806;2023-04-02T10:22:22;102270.19;;;7.37;55.03
26443;BME280;5563;52.296;6.806;2023-04-02T10:24:57;102272.34;;;7.09;55.15
26443;BME280;5563;52.296;6.806;2023-04-02T10:27:43;102274.31;;;6.64;57.38
26443;BME280;5563;52.296;6.806;2023-04-02T10:33:04;102260.66;;;6.09;59.12
26443;BME280;5563;52.296;6.806;2023-04-02T10:39:08;102275.91;;;7.08;57.37
26443;BME280;5563;52.296;6.806;2023-04-02T10:41:52;102288.53;;;7.61;56.63
26443;BME280;5563;52.296;6.806;2023-04-02T10:47:37;102294.72;;;8.36;54.53
26443;BME280;5563;52.296;6.806;2023-04-02T10:53:13;102300.75;;;8.57;54.84
26443;BME280;5563;52.296;6.806;2023-04-02T10:55:57;102301.75;;;8.90;54.52
26443;BME280;5563;52.296;6.806;2023-04-02T10:58:41;102311.81;;;8.84;53.59
26443;BME280;5563;52.296;6.806;2023-04-02T11:01:23;102313.41;;;8.70;53.24
26443;BME280;5563;52.296;6.806;2023-04-02T11:09:42;102317.41;;;8.60;52.42
26443;BME280;5563;52.296;6.806;2023-04-02T11:13:02;102326.19;;;8.62;51.64
26443;BME280;5563;52.296;6.806;2023-04-02T11:15:17;102324.56;;;8.77;53.15
26443;BME280;5563;52.296;6.806;2023-04-02T11:17:57;102325.06;;;9.02;52.43
26443;BME280;5563;52.296;6.806;2023-04-02T11:20:55;102339.31;;;9.18;51.48
26443;BME280;5563;52.296;6.806;2023-04-02T11:26:31;102337.81;;;9.47;51.57
26443;BME280;5563;52.296;6.806;2023-04-02T11:29:19;102339.50;;;9.48;50.18
26443;BME280;5563;52.296;6.806;2023-04-02T11:34:59;102339.38;;;9.34;51.62
26443;BME280;5563;52.296;6.806;2023-04-02T11:37:36;102346.22;;;9.22;52.69
26443;BME280;5563;52.296;6.806;2023-04-02T11:42:46;102356.59;;;9.27;52.48
26443;BME280;5563;52.296;6.806;2023-04-02T11:50:31;102357.28;;;9.64;49.08
26443;BME280;5563;52.296;6.806;2023-04-02T11:55:39;102358.75;;;9.70;49.13
26443;BME280;5563;52.296;6.806;2023-04-02T12:09:43;102365.81;;;9.87;48.24
26443;BME280;5563;52.296;6.806;2023-04-02T12:12:35;102375.47;;;9.89;48.96
26443;BME280;5563;52.296;6.806;2023-04-02T12:17:52;102381.03;;;9.84;49.50
26443;BME280;5563;52.296;6.806;2023-04-02T12:20:49;102375.31;;;10.09;49.24
26443;BME280;5563;52.296;6.806;2023-04-02T12:23:27;102385.13;;;10.40;50.43
26443;BME280;5563;52.296;6.806;2023-04-02T12:26:06;102380.28;;;10.77;49.20
26443;BME280;5563;52.296;6.806;2023-04-02T12:28:34;102383.38;;;10.70;46.82
26443;BME280;5563;52.296;6.806;2023-04-02T12:31:14;102381.06;;;10.17;47.71
26443;BME280;5563;52.296;6.806;2023-04-02T12:33:44;102387.81;;;10.07;49.13
26443;BME280;5563;52.296;6.806;2023-04-02T12:36:24;102392.50;;;10.19;49.44
26443;BME280;5563;52.296;6.806;2023-04-02T12:38:54;102394.38;;;10.17;47.18
26443;BME280;5563;52.296;6.806;2023-04-02T12:41:30;102387.53;;;9.96;46.04
26443;BME280;5563;52.296;6.806;2023-04-02T12:44:03;102397.88;;;10.02;47.62
26443;BME280;5563;52.296;6.806;2023-04-02T12:46:38;102398.41;;;9.92;47.19
26443;BME280;5563;52.296;6.806;2023-04-02T12:52:17;102410.06;;;9.56;47.63
26443;BME280;5563;52.296;6.806;2023-04-02T12:54:49;102392.94;;;9.45;47.15
26443;BME280;5563;52.296;6.806;2023-04-02T12:59:55;102399.31;;;9.58;47.44
26443;BME280;5563;52.296;6.806;2023-04-02T13:02:31;102395.00;;;9.72;49.01
26443;BME280;5563;52.296;6.806;2023-04-02T13:05:00;102379.69;;;9.93;48.35
26443;BME280;5563;52.296;6.806;2023-04-02T13:07:34;102403.00;;;10.38;47.49
26443;BME280;5563;52.296;6.806;2023-04-02T13:10:03;102414.91;;;10.63;47.22
26443;BME280;5563;52.296;6.806;2023-04-02T13:12:39;102411.94;;;10.99;46.37
26443;BME280;5563;52.296;6.806;2023-04-02T13:15:29;102421.25;;;10.92;44.75
26443;BME280;5563;52.296;6.806;2023-04-02T13:18:19;102418.69;;;10.91;45.31
26443;BME280;5563;52.296;6.806;2023-04-02T13:20:55;102411.03;;;11.14;45.94
26443;BME280;5563;52.296;6.806;2023-04-02T13:23:30;102419.09;;;11.28;46.19
26443;BME280;5563;52.296;6.806;2023-04-02T13:26:00;102421.13;;;11.39;44.79
26443;BME280;5563;52.296;6.806;2023-04-02T13:28:33;102414.91;;;11.24;43.78
26443;BME280;5563;52.296;6.806;2023-04-02T13:31:14;102419.09;;;10.99;44.06
26443;BME280;5563;52.296;6.806;2023-04-02T13:33:49;102384.31;;;10.84;45.82
26443;BME280;5563;52.296;6.806;2023-04-02T13:36:16;102416.13;;;11.19;46.17
26443;BME280;5563;52.296;6.806;2023-04-02T13:38:49;102412.19;;;11.40;44.19
26443;BME280;5563;52.296;6.806;2023-04-02T13:41:28;102420.09;;;11.12;44.27
26443;BME280;5563;52.296;6.806;2023-04-02T13:44:02;102426.09;;;11.31;45.32
26443;BME280;5563;52.296;6.806;2023-04-02T13:46:32;102401.41;;;11.41;43.99
26443;BME280;5563;52.296;6.806;2023-04-02T13:49:08;102404.09;;;11.85;44.69
26443;BME280;5563;52.296;6.806;2023-04-02T13:51:46;102408.03;;;12.22;43.63
26443;BME280;5563;52.296;6.806;2023-04-02T13:54:24;102404.13;;;12.13;41.73
26443;BME280;5563;52.296;6.806;2023-04-02T13:57:00;102421.41;;;12.36;45.21
26443;BME280;5563;52.296;6.806;2023-04-02T13:59:27;102419.19;;;12.28;41.95
26443;BME280;5563;52.296;6.806;2023-04-02T14:02:04;102413.28;;;12.09;41.02
26443;BME280;5563;52.296;6.806;2023-04-02T14:04:52;102420.41;;;11.80;41.91
26443;BME280;5563;52.296;6.806;2023-04-02T14:11:20;102423.97;;;11.81;42.32
26443;BME280;5563;52.296;6.806;2023-04-02T14:13:45;102423.41;;;12.04;42.85
26443;BME280;5563;52.296;6.806;2023-04-02T14:19:45;102442.91;;;12.89;42.33
26443;BME280;5563;52.296;6.806;2023-04-02T14:22:31;102443.94;;;12.86;41.74
26443;BME280;5563;52.296;6.806;2023-04-02T14:30:53;102421.22;;;12.11;42.29
26443;BME280;5563;52.296;6.806;2023-04-02T14:33:59;102444.28;;;11.98;42.15
26443;BME280;5563;52.296;6.806;2023-04-02T14:39:10;102447.06;;;12.10;43.06
26443;BME280;5563;52.296;6.806;2023-04-02T14:44:20;102448.38;;;11.75;41.78
26443;BME280;5563;52.296;6.806;2023-04-02T14:47:16;102457.25;;;11.75;41.56
26443;BME280;5563;52.296;6.806;2023-04-02T14:49:55;102417.03;;;11.63;41.88
26443;BME280;5563;52.296;6.806;2023-04-02T14:52:32;102455.03;;;11.68;41.81
26443;BME280;5563;52.296;6.806;2023-04-02T14:55:31;102463.94;;;11.82;41.64
26443;BME280;5563;52.296;6.806;2023-04-02T14:58:15;102443.94;;;11.60;41.15
26443;BME280;5563;52.296;6.806;2023-04-02T15:00:57;102449.44;;;11.57;43.28
26443;BME280;5563;52.296;6.806;2023-04-02T15:03:44;102448.88;;;11.95;42.73
26443;BME280;5563;52.296;6.806;2023-04-02T15:06:18;102460.75;;;12.20;41.30
26443;BME280;5563;52.296;6.806;2023-04-02T15:09:13;102439.16;;;11.94;41.80
26443;BME280;5563;52.296;6.806;2023-04-02T15:11:53;102454.03;;;11.84;40.39
26443;BME280;5563;52.296;6.806;2023-04-02T15:14:38;102466.16;;;11.76;40.52
26443;BME280;5563;52.296;6.806;2023-04-02T15:17:13;102455.03;;;11.68;41.02
26443;BME280;5563;52.296;6.806;2023-04-02T15:20:01;102457.63;;;11.83;39.84
26443;BME280;5563;52.296;6.806;2023-04-02T15:25:37;102472.19;;;11.93;41.27
26443;BME280;5563;52.296;6.806;2023-04-02T15:28:30;102474.22;;;12.18;41.62
26443;BME280;5563;52.296;6.806;2023-04-02T15:31:11;102464.38;;;12.47;40.59
26443;BME280;5563;52.296;6.806;2023-04-02T15:34:22;102457.59;;;12.27;39.95
26443;BME280;5563;52.296;6.806;2023-04-02T15:37:16;102458.06;;;12.20;41.05
26443;BME280;5563;52.296;6.806;2023-04-02T15:42:36;102481.38;;;12.18;40.91
26443;BME280;5563;52.296;6.806;2023-04-02T15:47:57;102489.06;;;11.94;41.04
26443;BME280;5563;52.296;6.806;2023-04-02T15:50:45;102493.41;;;11.67;40.58
26443;BME280;5563;52.296;6.806;2023-04-02T15:53:33;102493.09;;;11.42;41.57
26443;BME280;5563;52.296;6.806;2023-04-02T15:56:29;102498.53;;;11.40;43.09
26443;BME280;5563;52.296;6.806;2023-04-02T16:10:21;102511.03;;;10.77;43.34
26443;BME280;5563;52.296;6.806;2023-04-02T16:15:54;102505.06;;;10.57;44.14
26443;BME280;5563;52.296;6.806;2023-04-02T16:24:27;102523.22;;;10.33;44.72
26443;BME280;5563;52.296;6.806;2023-04-02T16:30:08;102523.41;;;9.96;46.39
26443;BME280;5563;52.296;6.806;2023-04-02T16:41:22;102539.69;;;9.56;45.74
26443;BME280;5563;52.296;6.806;2023-04-02T16:46:57;102546.47;;;9.44;46.35
26443;BME280;5563;52.296;6.806;2023-04-02T16:52:28;102550.03;;;9.26;47.00
26443;BME280;5563;52.296;6.806;2023-04-02T17:01:01;102558.16;;;9.23;47.33
26443;BME280;5563;52.296;6.806;2023-04-02T17:04:13;102543.69;;;9.10;46.65
26443;BME280;5563;52.296;6.806;2023-04-02T17:07:01;102571.47;;;9.23;47.54
26443;BME280;5563;52.296;6.806;2023-04-02T17:12:35;102583.13;;;9.02;47.51
26443;BME280;5563;52.296;6.806;2023-04-02T17:15:24;102588.00;;;8.93;48.15
26443;BME280;5563;52.296;6.806;2023-04-02T17:18:14;102588.50;;;8.82;48.17
26443;BME280;5563;52.296;6.806;2023-04-02T17:20:49;102588.84;;;8.74;48.28
26443;BME280;5563;52.296;6.806;2023-04-02T17:23:18;102599.56;;;8.73;48.40
26443;BME280;5563;52.296;6.806;2023-04-02T17:25:56;102595.59;;;8.63;48.53
26443;BME280;5563;52.296;6.806;2023-04-02T17:28:29;102601.38;;;8.52;48.10
26443;BME280;5563;52.296;6.806;2023-04-02T17:31:22;102597.47;;;8.41;48.54
26443;BME280;5563;52.296;6.806;2023-04-02T17:33:56;102609.19;;;8.37;49.66
26443;BME280;5563;52.296;6.806;2023-04-02T17:39:25;102621.47;;;8.18;50.20
26443;BME280;5563;52.296;6.806;2023-04-02T17:47:53;102631.59;;;7.88;50.49
26443;BME280;5563;52.296;6.806;2023-04-02T17:50:37;102609.47;;;7.68;50.92
26443;BME280;5563;52.296;6.806;2023-04-02T17:53:20;102618.66;;;7.59;50.79
26443;BME280;5563;52.296;6.806;2023-04-02T18:05:07;102620.59;;;7.11;52.10
26443;BME280;5563;52.296;6.806;2023-04-02T18:10:41;102650.97;;;7.02;53.25
26443;BME280;5563;52.296;6.806;2023-04-02T18:16:04;102659.34;;;6.90;54.69
26443;BME280;5563;52.296;6.806;2023-04-02T18:24:48;102679.69;;;6.67;55.72
26443;BME280;5563;52.296;6.806;2023-04-02T18:38:46;102687.19;;;6.29;56.63
26443;BME280;5563;52.296;6.806;2023-04-02T18:46:53;102696.22;;;5.96;57.89
26443;BME280;5563;52.296;6.806;2023-04-02T18:49:37;102695.66;;;5.87;58.57
26443;BME280;5563;52.296;6.806;2023-04-02T18:52:14;102678.50;;;5.71;58.94
26443;BME280;5563;52.296;6.806;2023-04-02T18:54:48;102718.81;;;5.79;59.25
26443;BME280;5563;52.296;6.806;2023-04-02T18:57:24;102701.69;;;5.63;59.17
26443;BME280;5563;52.296;6.806;2023-04-02T19:00:28;102738.59;;;5.67;59.67
26443;BME280;5563;52.296;6.806;2023-04-02T19:03:13;102723.13;;;5.53;60.27
26443;BME280;5563;52.296;6.806;2023-04-02T19:06:17;102709.31;;;5.44;59.30
26443;BME280;5563;52.296;6.806;2023-04-02T19:09:23;102715.50;;;5.44;59.93
26443;BME280;5563;52.296;6.806;2023-04-02T19:11:59;102734.63;;;5.53;61.02
26443;BME280;5563;52.296;6.806;2023-04-02T19:14:33;102726.75;;;5.51;61.03
26443;BME280;5563;52.296;6.806;2023-04-02T19:20:32;102746.53;;;5.67;59.98
26443;BME280;5563;52.296;6.806;2023-04-02T19:23:06;102744.72;;;5.68;60.46
26443;BME280;5563;52.296;6.806;2023-04-02T19:25:48;102767.44;;;5.76;60.07
26443;BME280;5563;52.296;6.806;2023-04-02T19:31:47;102755.78;;;5.82;60.11
26443;BME280;5563;52.296;6.806;2023-04-02T19:40:12;102773.25;;;5.89;60.20
26443;BME280;5563;52.296;6.806;2023-04-02T19:42:52;102780.09;;;5.96;59.59
26443;BME280;5563;52.296;6.806;2023-04-02T19:45:27;102787.09;;;5.97;60.83
26443;BME280;5563;52.296;6.806;2023-04-02T19:48:09;102780.03;;;5.97;60.28
26443;BME280;5563;52.296;6.806;2023-04-02T19:50:38;102770.63;;;5.87;61.12
26443;BME280;5563;52.296;6.806;2023-04-02T19:53:13;102788.81;;;5.98;60.50
26443;BME280;5563;52.296;6.806;2023-04-02T19:55:41;102787.06;;;5.98;60.33
26443;BME280;5563;52.296;6.806;2023-04-02T19:58:31;102798.47;;;6.00;60.36
26443;BME280;5563;52.296;6.806;2023-04-02T20:01:05;102797.69;;;5.97;59.96
26443;BME280;5563;52.296;6.806;2023-04-02T20:03:38;102780.28;;;5.90;59.83
26443;BME280;5563;52.296;6.806;2023-04-02T20:06:12;102808.06;;;6.04;59.18
26443;BME280;5563;52.296;6.806;2023-04-02T20:08:39;102816.78;;;6.08;58.41
26443;BME280;5563;52.296;6.806;2023-04-02T20:11:13;102805.34;;;6.06;58.09
26443;BME280;5563;52.296;6.806;2023-04-02T20:13:41;102807.13;;;6.05;58.33
26443;BME280;5563;52.296;6.806;2023-04-02T20:16:15;102802.00;;;6.01;58.76
26443;BME280;5563;52.296;6.806;2023-04-02T20:18:42;102826.38;;;6.10;58.16
26443;BME280;5563;52.296;6.806;2023-04-02T20:21:23;102821.25;;;6.06;58.27
26443;BME280;5563;52.296;6.806;2023-04-02T20:23:53;102830.00;;;6.08;58.03
26443;BME280;5563;52.296;6.806;2023-04-02T20:26:27;102831.84;;;6.06;58.44
26443;BME280;5563;52.296;6.806;2023-04-02T20:29:02;102846.13;;;6.00;58.32
26443;BME280;5563;52.296;6.806;2023-04-02T20:31:36;102843.59;;;5.97;58.07
26443;BME280;5563;52.296;6.806;2023-04-02T20:34:03;102846.28;;;5.96;57.90
26443;BME280;5563;52.296;6.806;2023-04-02T20:36:41;102852.53;;;5.93;58.56
26443;BME280;5563;52.296;6.806;2023-04-02T20:39:08;102857.00;;;5.91;57.07
26443;BME280;5563;52.296;6.806;2023-04-02T20:41:45;102861.44;;;5.89;57.29
26443;BME280;5563;52.296;6.806;2023-04-02T20:44:12;102847.66;;;5.78;57.11
26443;BME280;5563;52.296;6.806;2023-04-02T20:46:46;102859.84;;;5.85;57.59
26443;BME280;5563;52.296;6.806;2023-04-02T20:49:15;102850.41;;;5.74;57.91
26443;BME280;5563;52.296;6.806;2023-04-02T20:51:54;102864.59;;;5.71;57.01
26443;BME280;5563;52.296;6.806;2023-04-02T20:54:23;102842.88;;;5.60;57.39
26443;BME280;5563;52.296;6.806;2023-04-02T20:56:57;102858.81;;;5.59;57.31
26443;BME280;5563;52.296;6.806;2023-04-02T20:59:24;102847.56;;;5.50;57.41
26443;BME280;5563;52.296;6.806;2023-04-02T21:02:00;102855.50;;;5.50;57.06
26443;BME280;5563;52.296;6.806;2023-04-02T21:04:27;102862.03;;;5.37;57.66
26443;BME280;5563;52.296;6.806;2023-04-02T21:06:54;102882.03;;;5.47;56.95
26443;BME280;5563;52.296;6.806;2023-04-02T21:09:29;102864.97;;;5.27;57.37
26443;BME280;5563;52.296;6.806;2023-04-02T21:12:03;102868.56;;;5.24;57.62
26443;BME280;5563;52.296;6.806;2023-04-02T21:14:37;102890.59;;;5.25;57.89
26443;BME280;5563;52.296;6.806;2023-04-02T21:17:05;102872.47;;;5.10;58.28
26443;BME280;5563;52.296;6.806;2023-04-02T21:19:46;102894.47;;;5.12;58.51
26443;BME280;5563;52.296;6.806;2023-04-02T21:22:13;102889.44;;;5.01;58.86
26443;BME280;5563;52.296;6.806;2023-04-02T21:24:47;102893.25;;;4.91;59.33
26443;BME280;5563;52.296;6.806;2023-04-02T21:27:14;102872.50;;;4.75;59.01
26443;BME280;5563;52.296;6.806;2023-04-02T21:29:48;102904.03;;;4.81;58.84
26443;BME280;5563;52.296;6.806;2023-04-02T21:32:15;102889.50;;;4.65;60.16
26443;BME280;5563;52.296;6.806;2023-04-02T21:34:49;102872.28;;;4.47;59.50